Stanton, Tennessee
Current Conditions -  °F | °C
As of 12:50 PM on Monday 22 Dec 2014 (Local Time) from KNQA Reporting Station
Overcast Overcast  
Wind Chill: 55°   Ceiling: 1000
Heat Index: 55°   Visibility: 10mi
Dew Point: 54°   Wind: 12mph
Humidity: 94%   Direction: 140°SE
Pressure: 29.67"   Gusts: NA
Location:  35.46°N, 89.4°W
Report Text: KNQA 221850Z 14010KT 10SM OVC010 13/12 A2967
Loading
Personal Weather Stations






























Interactive Weather Map New forecast layout! Learn more

10-Day Weather Forecast

Advertisements
Track Severe Weather on mobile